Time;durP1;ratioP1;P1;durP2;ratioP2;P2;SDS_P1;SDS_P2;PMS_P1;PMS_P2;Temp;Humidity;BMP_temperature;BMP_pressure;BME280_temperature;BME280_humidity;BME280_pressure;Samples;Min_cycle;Max_cycle;Signal;HPM_P1;HPM_P2
2022/12/25 00:01:50;;;;;;;32.88;9.85;;;;;;;6.42;100.00;101394.47;5124286;22;20055;-79
2022/12/25 00:04:16;;;;;;;31.17;9.82;;;;;;;6.43;100.00;101393.59;5071104;28;20479;-79
2022/12/25 00:06:41;;;;;;;30.75;9.20;;;;;;;6.47;100.00;101403.09;5071289;28;20021;-79
2022/12/25 00:09:06;;;;;;;30.83;9.15;;;;;;;6.62;100.00;101425.59;5071962;28;20060;-79
2022/12/25 00:11:45;;;;;;;33.65;9.35;;;;;;;6.64;100.00;101416.06;5069921;28;20028;-79
2022/12/25 00:14:17;;;;;;;35.30;9.73;;;;;;;6.67;100.00;101422.16;5072451;28;20047;-79
2022/12/25 00:16:48;;;;;;;36.67;9.20;;;;;;;6.70;100.00;101429.03;5072038;28;20029;-79
2022/12/25 00:19:56;;;;;;;37.13;10.00;;;;;;;6.51;100.00;101387.56;5071751;28;20379;-78
2022/12/25 00:22:44;;;;;;;33.10;10.10;;;;;;;6.88;100.00;101448.97;5027892;23;20060;-79
2022/12/25 00:25:09;;;;;;;29.63;10.40;;;;;;;6.77;100.00;101425.63;5070973;28;20062;-78
2022/12/25 00:27:47;;;;;;;36.03;10.02;;;;;;;6.61;100.00;101390.19;5072086;28;20016;-78
2022/12/25 00:30:13;;;;;;;27.10;9.70;;;;;;;6.86;100.00;101429.94;5070632;28;20491;-78
2022/12/25 00:33:06;;;;;;;37.00;10.10;;;;;;;6.97;100.00;101439.47;5148809;22;20049;-78
2022/12/25 00:35:32;;;;;;;37.55;10.32;;;;;;;6.78;100.00;101399.69;5071985;28;20040;-78
2022/12/25 00:38:17;;;;;;;27.23;10.25;;;;;;;6.98;100.00;101436.00;5071705;28;20081;-79
2022/12/25 00:40:48;;;;;;;36.95;10.98;;;;;;;6.91;100.00;101420.44;5070416;28;20388;-79
2022/12/25 00:43:16;;;;;;;31.27;10.50;;;;;;;6.99;100.00;101421.31;5071420;28;20103;-78
2022/12/25 00:46:20;;;;;;;34.10;10.65;;;;;;;6.72;100.00;101386.72;5070621;28;20040;-79
2022/12/25 00:49:01;;;;;;;35.22;10.88;;;;;;;6.84;100.00;101406.63;5059431;28;20041;-79
2022/12/25 00:51:32;;;;;;;30.83;10.85;;;;;;;6.81;100.00;101409.22;5069890;28;20051;-79
2022/12/25 00:54:27;;;;;;;31.98;12.30;;;;;;;6.76;100.00;101396.22;5071949;28;20036;-79
2022/12/25 00:57:07;;;;;;;40.03;11.43;;;;;;;6.97;100.00;101415.28;4970492;28;20518;-79
2022/12/25 00:59:47;;;;;;;42.92;11.50;;;;;;;7.01;100.00;101414.41;4954911;28;20035;-79
2022/12/25 01:02:37;;;;;;;37.10;12.70;;;;;;;6.80;100.00;101379.84;4967969;28;20442;-79
2022/12/25 01:05:04;;;;;;;43.58;12.20;;;;;;;6.85;100.00;101385.00;4913589;29;20040;-79
2022/12/25 01:07:38;;;;;;;34.10;11.85;;;;;;;6.92;100.00;101396.25;4924779;29;20052;-79
2022/12/25 01:10:28;;;;;;;31.35;12.05;;;;;;;6.90;100.00;101388.50;4908726;29;20436;-79
2022/12/25 01:12:53;;;;;;;37.70;11.82;;;;;;;6.73;100.00;101367.72;4922878;29;20032;-79
2022/12/25 01:15:25;;;;;;;41.72;11.32;;;;;;;6.83;100.00;101391.91;4913284;29;20488;-79
2022/12/25 01:17:50;;;;;;;35.80;11.73;;;;;;;6.59;100.00;101366.00;4921276;29;20126;-79
2022/12/25 01:23:22;;;;;;;32.17;11.32;;;;;;;6.82;100.00;101407.47;5009497;28;20072;-79
2022/12/25 01:29:13;;;;;;;40.70;11.70;;;;;;;6.83;100.00;101410.06;4966639;28;20509;-79
2022/12/25 01:31:50;;;;;;;42.88;12.55;;;;;;;6.71;100.00;101392.78;4975705;28;20031;-79
2022/12/25 01:34:26;;;;;;;38.67;12.45;;;;;;;6.78;100.00;101399.69;5005347;28;20060;-79
2022/12/25 01:36:54;;;;;;;42.88;11.75;;;;;;;7.08;100.00;101443.78;5013420;28;20125;-79
2022/12/25 01:39:19;;;;;;;37.58;13.27;;;;;;;6.79;100.00;101385.00;5002848;28;20030;-79
2022/12/25 01:42:00;;;;;;;44.60;12.93;;;;;;;6.83;100.00;101385.88;5059769;28;20479;-79
2022/12/25 01:45:35;;;;;;;34.15;11.63;;;;;;;7.16;100.00;101442.94;5074452;28;20165;-78
2022/12/25 01:48:24;;;;;;;;;;;;;;;7.18;100.00;101454.16;5070555;28;20085;-79
2022/12/25 01:51:39;;;;;;;38.40;12.23;;;;;;;7.14;100.00;101443.78;5065835;28;19923;-79
2022/12/25 01:57:10;;;;;;;34.80;11.52;;;;;;;7.09;100.00;101441.19;4993234;28;20108;-79
2022/12/25 01:59:42;;;;;;;38.83;11.45;;;;;;;7.02;100.00;101434.28;4976483;28;20030;-79
2022/12/25 02:02:10;;;;;;;35.13;11.90;;;;;;;7.01;100.00;101440.31;4992291;28;20034;-79
2022/12/25 02:05:07;;;;;;;35.65;11.45;;;;;;;7.07;100.00;101442.94;4991948;28;20034;-79
2022/12/25 02:07:48;;;;;;;38.13;10.75;;;;;;;7.23;100.00;101470.59;4980897;28;20473;-79
2022/12/25 02:10:19;;;;;;;27.40;10.43;;;;;;;7.14;100.00;101455.03;4990194;28;20494;-79
2022/12/25 02:12:57;;;;;;;25.95;10.23;;;;;;;6.90;100.00;101413.50;4993012;28;20034;-79
2022/12/25 02:15:41;;;;;;;31.15;10.80;;;;;;;7.11;100.00;101448.97;4991234;28;20064;-79
2022/12/25 02:18:25;;;;;;;30.85;11.15;;;;;;;7.25;100.00;101467.97;5068474;22;20063;-79
2022/12/25 02:21:47;;;;;;;;;;;;;;;;;;;;;
2022/12/25 02:24:22;;;;;;;38.85;11.95;;;;;;;7.26;100.00;101478.38;5041345;23;20041;-79
2022/12/25 02:27:05;;;;;;;32.72;12.27;;;;;;;7.27;100.00;101477.50;5046029;28;20472;-79
2022/12/25 02:29:49;;;;;;;;;;;;;;;7.28;100.00;101480.97;5025324;28;20464;-79
2022/12/25 02:32:33;;;;;;;34.80;11.80;;;;;;;7.27;100.00;101474.06;5039732;28;19917;-78
2022/12/25 02:35:04;;;;;;;;;;;;;;;7.26;100.00;101469.75;5041526;28;20167;-78
2022/12/25 02:37:48;;;;;;;29.05;10.77;;;;;;;7.23;100.00;101455.03;5013704;28;19967;-78
2022/12/25 02:40:46;;;;;;;25.80;12.18;;;;;;;7.26;100.00;101454.19;5096858;23;20044;-79
2022/12/25 03:07:19;;;;;;;32.03;11.63;;;;;;;7.03;100.00;101403.19;5095716;28;20498;-79
2022/12/25 03:13:18;;;;;;;26.92;10.73;;;;;;;6.67;100.00;101343.53;5094888;28;20441;-79
2022/12/25 03:18:54;;;;;;;21.48;9.68;;;;;;;6.56;100.00;101341.78;5096138;28;20173;-79
2022/12/25 03:27:05;;;;;;;;;;;;;;;6.63;100.00;101378.94;5113393;28;20540;-79
2022/12/25 03:33:07;;;;;;;26.58;10.07;;;;;;;6.57;100.00;101373.75;5107648;28;20042;-79
2022/12/25 03:36:13;;;;;;;32.58;10.27;;;;;;;6.51;100.00;101366.00;5084976;28;20036;-79
2022/12/25 04:37:22;;;;;;;25.63;8.75;;;;;;;6.66;100.00;101327.13;5101566;28;20047;-79
2022/12/25 04:39:48;;;;;;;25.47;8.33;;;;;;;6.68;100.00;101335.78;5112439;28;20016;-79
2022/12/25 04:42:29;;;;;;;19.60;8.18;;;;;;;6.78;100.00;101337.50;5111842;28;20023;-78
2022/12/25 04:45:07;;;;;;;22.85;8.27;;;;;;;6.75;100.00;101327.13;5111531;28;20372;-78
2022/12/25 04:47:45;;;;;;;21.98;7.55;;;;;;;6.78;100.00;101328.88;5120786;28;20073;-78
2022/12/25 04:50:25;;;;;;;20.10;7.68;;;;;;;6.74;100.00;101317.63;5111738;28;20055;-79
2022/12/25 04:53:06;;;;;;;17.20;7.18;;;;;;;6.57;100.00;101307.28;5112031;28;20024;-79
2022/12/25 04:55:32;;;;;;;18.20;6.47;;;;;;;6.69;100.00;101339.22;5111611;28;20027;-79
2022/12/25 04:58:08;;;;;;;19.55;6.75;;;;;;;6.55;100.00;101328.84;5111958;28;20028;-79
2022/12/25 05:00:43;;;;;;;17.33;6.38;;;;;;;6.55;100.00;101319.34;5099417;28;20023;-79
2022/12/25 05:03:14;;;;;;;21.10;6.38;;;;;;;6.42;100.00;101296.91;5111950;28;20027;-79
2022/12/25 05:05:39;;;;;;;18.40;6.40;;;;;;;6.61;100.00;101323.69;5109625;28;20027;-78
2022/12/25 05:08:27;;;;;;;14.35;6.30;;;;;;;6.70;100.00;101336.66;5127905;27;20027;-78
2022/12/25 05:11:18;;;;;;;22.58;6.47;;;;;;;6.52;100.00;101290.84;5096953;28;20024;-80
2022/12/25 05:13:58;;;;;;;19.30;6.55;;;;;;;6.55;100.00;101279.63;5049457;28;20044;-78
2022/12/25 05:16:26;;;;;;;20.58;6.72;;;;;;;6.91;100.00;101330.59;5060236;28;20052;-79
2022/12/25 05:18:57;;;;;;;24.65;6.40;;;;;;;6.68;100.00;101286.53;5049333;28;20460;-78
2022/12/25 05:21:22;;;;;;;20.42;7.03;;;;;;;6.77;100.00;101309.88;5033339;28;20762;-79
2022/12/25 05:24:04;;;;;;;16.40;6.70;;;;;;;6.71;100.00;101294.31;5047046;28;20028;-79
2022/12/25 05:26:29;;;;;;;18.17;6.90;;;;;;;6.75;100.00;101280.50;5053059;28;20029;-79
2022/12/25 05:29:00;;;;;;;20.33;6.45;;;;;;;6.73;100.00;101271.84;5039043;28;20063;-79
2022/12/25 05:31:25;;;;;;;14.30;6.82;;;;;;;6.98;100.00;101297.75;5052508;28;20033;-78
2022/12/25 05:33:51;;;;;;;14.10;6.20;;;;;;;7.09;100.00;101301.16;5052682;28;20021;-78
2022/12/25 05:36:19;;;;;;;20.83;6.43;;;;;;;6.92;100.00;101264.91;5060189;28;20056;-78
2022/12/25 05:38:45;;;;;;;15.00;6.45;;;;;;;6.80;100.00;101239.91;5052592;28;20041;-78
2022/12/25 05:41:16;;;;;;;13.88;5.90;;;;;;;7.06;100.00;101280.44;5037458;28;20135;-78
2022/12/25 05:43:41;;;;;;;16.45;6.25;;;;;;;6.94;100.00;101268.38;5043849;28;20041;-79
2022/12/25 05:46:25;;;;;;;16.98;5.88;;;;;;;7.03;100.00;101277.88;5049297;28;20032;-79
2022/12/25 05:48:53;;;;;;;12.35;5.80;;;;;;;6.88;100.00;101246.78;5040737;28;20187;-79
2022/12/25 05:51:25;;;;;;;10.27;5.18;;;;;;;6.91;100.00;101249.38;5080635;28;20472;-79
2022/12/25 05:53:53;;;;;;;13.63;5.57;;;;;;;6.98;100.00;101266.63;5105737;28;20020;-78
2022/12/25 05:56:18;;;;;;;14.90;5.65;;;;;;;7.13;100.00;101286.47;5093681;28;20031;-79
2022/12/25 05:58:44;;;;;;;16.73;5.68;;;;;;;7.13;100.00;101281.28;5094913;28;20020;-79
2022/12/25 06:01:29;;;;;;;11.63;5.50;;;;;;;7.25;100.00;101296.81;5094425;28;20020;-79
2022/12/25 06:04:00;;;;;;;12.07;5.40;;;;;;;7.16;100.00;101269.19;5107317;28;20044;-79
2022/12/25 06:06:34;;;;;;;15.00;5.57;;;;;;;7.22;100.00;101276.09;5096019;28;20024;-79
2022/12/25 06:09:11;;;;;;;11.88;4.97;;;;;;;7.10;100.00;101258.00;5080619;28;20085;-78
2022/12/25 06:12:14;;;;;;;14.82;4.75;;;;;;;7.01;100.00;101232.94;5094247;28;20031;-78
2022/12/25 06:14:48;;;;;;;13.43;4.97;;;;;;;7.22;100.00;101269.16;5046427;28;20121;-79
2022/12/25 06:17:28;;;;;;;11.80;4.68;;;;;;;7.00;100.00;101233.81;5114128;28;20024;-79
2022/12/25 06:19:56;;;;;;;9.02;4.45;;;;;;;6.98;100.00;101214.78;5104845;28;20410;-79
2022/12/25 06:26:52;;;;;;;14.68;5.10;;;;;;;7.18;100.00;101236.34;5030828;28;20115;-79
2022/12/25 06:29:18;;;;;;;12.93;5.10;;;;;;;7.00;100.00;101213.94;5038696;28;20045;-79
2022/12/25 06:31:58;;;;;;;15.02;5.53;;;;;;;7.15;100.00;101243.25;5051892;28;20031;-78
2022/12/25 06:34:29;;;;;;;11.73;4.90;;;;;;;7.14;100.00;101228.59;5050094;28;20029;-79
2022/12/25 06:36:55;;;;;;;9.02;4.05;;;;;;;7.21;100.00;101233.72;5089083;28;20059;-79
2022/12/25 06:39:35;;;;;;;11.45;4.55;;;;;;;7.09;100.00;101207.84;5100541;28;20483;-79
2022/12/25 06:42:00;;;;;;;12.05;4.85;;;;;;;7.20;100.00;101216.47;5101201;28;20031;-79
2022/12/25 06:44:35;;;;;;;11.93;4.80;;;;;;;7.10;100.00;101187.97;5120242;27;20398;-78
2022/12/25 06:47:27;;;;;;;9.93;4.85;;;;;;;7.00;100.00;101171.59;5101629;28;20506;-79
2022/12/25 06:49:55;;;;;;;12.27;4.75;;;;;;;7.03;100.00;101174.19;5069827;28;20041;-79
2022/12/25 06:52:33;;;;;;;14.13;5.28;;;;;;;7.04;100.00;101168.13;5100520;28;20042;-79
2022/12/25 06:55:11;;;;;;;14.43;4.97;;;;;;;7.22;100.00;101175.81;5116481;27;20035;-78
2022/12/25 06:58:00;;;;;;;11.48;4.13;;;;;;;7.34;100.00;101187.00;5103928;28;20034;-79
2022/12/25 07:00:37;;;;;;;13.82;4.90;;;;;;;7.15;100.00;101157.69;5112688;28;20562;-79
2022/12/25 07:03:09;;;;;;;11.07;4.80;;;;;;;7.09;100.00;101145.63;5118986;27;20374;-79
2022/12/25 07:05:43;;;;;;;18.95;5.22;;;;;;;7.02;100.00;101143.91;5099759;28;20016;-78
2022/12/25 07:08:15;;;;;;;12.52;5.10;;;;;;;7.02;100.00;101136.13;5113096;28;20024;-79
2022/12/25 07:10:40;;;;;;;11.68;4.72;;;;;;;7.16;100.00;101159.41;5113425;28;20028;-78
2022/12/25 07:13:44;;;;;;;19.60;4.68;;;;;;;7.10;100.00;101152.53;5117433;27;20034;-79
2022/12/25 07:16:40;;;;;;;9.13;4.38;;;;;;;7.39;100.00;101200.81;5069400;28;20086;-79
2022/12/25 07:19:18;;;;;;;11.43;4.65;;;;;;;7.22;100.00;101168.03;5076851;28;20047;-78
2022/12/25 07:22:01;;;;;;;17.52;4.43;;;;;;;7.22;100.00;101187.91;5106970;28;20068;-78
2022/12/25 07:24:33;;;;;;;15.38;4.10;;;;;;;7.19;100.00;101188.81;5100066;28;20093;-79
2022/12/25 07:27:07;;;;;;;11.80;4.07;;;;;;;7.14;100.00;101190.53;5113258;28;20043;-79
2022/12/25 07:29:41;;;;;;;12.13;4.00;;;;;;;7.25;100.00;101219.03;5113274;28;20470;-79
2022/12/25 07:32:21;;;;;;;11.57;4.63;;;;;;;7.36;100.00;101239.75;5113044;28;20027;-78
2022/12/25 07:34:49;;;;;;;9.75;4.25;;;;;;;7.19;100.00;101208.66;5113695;28;20409;-79
2022/12/25 07:37:14;;;;;;;9.63;4.25;;;;;;;7.22;100.00;101226.81;5114000;27;20020;-78
2022/12/25 07:39:55;;;;;;;11.23;4.45;;;;;;;7.12;100.00;101189.69;5116244;27;20028;-79
2022/12/25 07:42:26;;;;;;;9.30;3.80;;;;;;;7.07;100.00;101173.28;5113564;28;20023;-79
2022/12/25 07:44:52;;;;;;;11.18;4.25;;;;;;;7.27;100.00;101191.38;5113105;28;20029;-78
2022/12/25 07:47:26;;;;;;;15.40;4.43;;;;;;;6.93;100.00;101138.75;5112506;28;20020;-79
2022/12/25 07:50:03;;;;;;;9.20;4.10;;;;;;;7.16;100.00;101186.22;5111788;28;20027;-79
2022/12/25 07:54:57;;;;;;;12.10;4.38;;;;;;;7.23;100.00;101200.88;5071564;28;20106;-78
2022/12/25 07:57:24;;;;;;;8.57;4.10;;;;;;;7.32;100.00;101227.63;5077086;28;20023;-79
2022/12/25 07:59:50;;;;;;;12.60;4.43;;;;;;;7.31;100.00;101238.88;5077864;28;20021;-79
2022/12/25 08:02:15;;;;;;;9.63;4.40;;;;;;;7.31;100.00;101252.72;5071568;28;20066;-79
2022/12/25 08:04:41;;;;;;;9.70;4.30;;;;;;;7.30;100.00;101255.34;5072859;28;20090;-79
2022/12/25 08:07:06;;;;;;;10.25;4.50;;;;;;;7.34;100.00;101254.44;5073823;28;20032;-78
2022/12/25 08:09:31;;;;;;;11.35;4.53;;;;;;;7.30;100.00;101256.19;5081601;28;20074;-79
2022/12/25 08:11:56;;;;;;;10.18;4.18;;;;;;;7.35;100.00;101261.34;5075765;28;20024;-79
2022/12/25 08:14:22;;;;;;;12.02;4.63;;;;;;;7.34;100.00;101270.88;5075350;28;20415;-78
2022/12/25 08:16:47;;;;;;;14.00;4.50;;;;;;;7.32;100.00;101272.59;5077940;28;20021;-78
2022/12/25 08:19:13;;;;;;;10.40;4.47;;;;;;;7.37;100.00;101290.75;5085484;28;20052;-78
2022/12/25 08:21:39;;;;;;;12.05;4.47;;;;;;;7.36;100.00;101291.63;5069370;28;20463;-78
2022/12/25 08:24:05;;;;;;;11.48;4.43;;;;;;;7.35;100.00;101279.50;5072649;28;20150;-78
2022/12/25 08:26:30;;;;;;;9.73;4.35;;;;;;;7.37;100.00;101257.88;5072380;28;20029;-78
2022/12/25 08:28:56;;;;;;;9.75;4.35;;;;;;;7.37;100.00;101255.28;5072023;28;20033;-78
2022/12/25 08:31:24;;;;;;;8.45;4.38;;;;;;;7.42;100.00;101268.22;5071870;28;20024;-77
2022/12/25 08:33:51;;;;;;;12.70;3.90;;;;;;;7.36;100.00;101263.09;5072131;28;20103;-78
2022/12/25 08:36:17;;;;;;;8.85;4.10;;;;;;;7.33;100.00;101257.91;5071287;28;20563;-78
2022/12/25 08:38:43;;;;;;;11.40;5.93;;;;;;;7.39;100.00;101263.06;5071079;28;20484;-78
2022/12/25 08:41:10;;;;;;;17.77;5.85;;;;;;;7.42;100.00;101279.50;5074147;28;20081;-77
2022/12/25 08:43:38;;;;;;;10.77;5.00;;;;;;;7.43;100.00;101290.72;5083492;28;20038;-78
2022/12/25 08:46:04;;;;;;;9.90;4.80;;;;;;;7.37;100.00;101286.41;5076175;28;20017;-78
2022/12/25 08:48:30;;;;;;;10.65;5.35;;;;;;;7.39;100.00;101284.69;5077866;28;20419;-77
2022/12/25 08:50:55;;;;;;;11.75;5.35;;;;;;;7.41;100.00;101292.47;5075104;28;20623;-78
2022/12/25 08:53:21;;;;;;;9.77;4.72;;;;;;;7.39;100.00;101287.28;5074785;28;20056;-78
2022/12/25 08:55:47;;;;;;;13.38;4.97;;;;;;;7.40;100.00;101277.78;5077536;28;20480;-78
2022/12/25 08:58:13;;;;;;;11.65;4.93;;;;;;;7.38;100.00;101266.53;5075346;28;20025;-78
2022/12/25 09:00:39;;;;;;;14.98;5.18;;;;;;;7.39;100.00;101268.25;5087351;28;20025;-78
2022/12/25 09:03:05;;;;;;;11.52;5.47;;;;;;;7.36;100.00;101263.94;5079021;28;20037;-78
2022/12/25 09:05:32;;;;;;;14.88;5.80;;;;;;;7.29;100.00;101241.47;5075226;28;20157;-79
2022/12/25 09:07:58;;;;;;;13.55;5.05;;;;;;;7.36;100.00;101252.72;5073958;28;20029;-79
2022/12/25 09:10:23;;;;;;;12.98;5.82;;;;;;;7.40;100.00;101254.44;5070353;28;20486;-79
2022/12/25 09:12:49;;;;;;;15.07;5.85;;;;;;;7.37;100.00;101233.69;5075744;28;20021;-79
2022/12/25 09:15:14;;;;;;;12.32;5.47;;;;;;;7.41;100.00;101253.53;5075074;28;20365;-78
2022/12/25 09:17:39;;;;;;;13.60;5.75;;;;;;;7.45;100.00;101263.91;5075148;28;20040;-78
2022/12/25 09:20:06;;;;;;;10.45;6.40;;;;;;;7.53;100.00;101271.66;5075864;28;20056;-78
2022/12/25 09:22:32;;;;;;;13.27;6.32;;;;;;;7.50;100.00;101274.28;5075101;28;20025;-78
2022/12/25 09:24:58;;;;;;;13.95;6.57;;;;;;;7.50;100.00;101269.09;5075083;28;20025;-78
2022/12/25 09:27:26;;;;;;;11.73;6.38;;;;;;;7.53;100.00;101265.63;5071938;28;20379;-78
2022/12/25 09:29:53;;;;;;;15.52;6.50;;;;;;;7.49;100.00;101250.06;5074169;28;20041;-78
2022/12/25 09:32:18;;;;;;;13.02;6.20;;;;;;;7.53;100.00;101256.09;5070607;28;20452;-78
2022/12/25 09:34:43;;;;;;;11.40;5.80;;;;;;;7.51;100.00;101256.09;5072264;28;20017;-78
2022/12/25 09:37:09;;;;;;;13.30;5.88;;;;;;;7.51;100.00;101234.47;5064670;28;20104;-79
2022/12/25 09:39:34;;;;;;;12.10;5.65;;;;;;;7.52;100.00;101228.44;5074993;28;20095;-79
2022/12/25 09:42:12;;;;;;;13.75;6.43;;;;;;;7.48;100.00;101217.19;5075494;28;20033;-78
2022/12/25 09:44:44;;;;;;;13.60;5.97;;;;;;;7.49;100.00;101228.44;5074041;28;20028;-78
2022/12/25 09:47:14;;;;;;;21.20;6.78;;;;;;;7.49;100.00;101229.31;5068455;28;20017;-78
2022/12/25 09:49:58;;;;;;;14.82;6.22;;;;;;;7.54;100.00;101239.66;5051795;28;20032;-79
2022/12/25 09:52:57;;;;;;;14.50;6.10;;;;;;;7.56;100.00;101240.53;5072410;28;20029;-78
2022/12/25 09:55:24;;;;;;;14.93;6.32;;;;;;;7.55;100.00;101220.59;5061689;28;20123;-79
2022/12/25 10:00:18;;;;;;;11.95;6.72;;;;;;;7.45;100.00;101212.00;5111186;22;20056;-79
2022/12/25 10:03:29;;;;;;;14.00;6.47;;;;;;;7.61;100.00;101215.41;5090772;28;20467;-78
2022/12/25 10:09:35;;;;;;;12.60;7.03;;;;;;;7.57;100.00;101194.69;5026115;28;21554;-79
2022/12/25 10:12:22;;;;;;;13.30;6.25;;;;;;;7.65;100.00;101198.97;5082007;28;20028;-78
2022/12/25 10:15:35;;;;;;;16.13;7.30;;;;;;;7.69;100.00;101200.66;5090290;28;20031;-78
2022/12/25 10:18:20;;;;;;;16.67;7.60;;;;;;;7.70;100.00;101196.31;4993837;28;20033;-79
2022/12/25 10:20:57;;;;;;;16.30;7.43;;;;;;;7.73;100.00;101204.09;5092655;28;20249;-80
2022/12/25 10:23:37;;;;;;;18.70;7.63;;;;;;;7.81;100.00;101193.66;5094515;28;20024;-79
2022/12/25 10:26:18;;;;;;;19.20;8.45;;;;;;;7.86;100.00;101184.13;5095057;28;20027;-79
2022/12/25 10:28:46;;;;;;;20.73;8.25;;;;;;;7.88;100.00;101188.44;5093317;28;20055;-79
2022/12/25 10:31:20;;;;;;;15.10;8.52;;;;;;;7.76;100.00;101159.97;5094407;28;20095;-79
2022/12/25 10:33:48;;;;;;;19.15;8.65;;;;;;;7.82;100.00;101185.03;5087672;28;20020;-79
2022/12/25 10:36:17;;;;;;;15.65;8.38;;;;;;;7.79;100.00;101196.28;5085765;28;20020;-79
2022/12/25 10:38:43;;;;;;;15.73;8.32;;;;;;;7.74;100.00;101191.09;5093255;28;20028;-79
2022/12/25 10:41:36;;;;;;;16.52;7.63;;;;;;;7.71;100.00;101191.13;5093539;28;20438;-79
2022/12/25 10:44:13;;;;;;;22.53;9.50;;;;;;;7.68;100.00;101191.16;5091753;28;20475;-79
2022/12/25 10:46:39;;;;;;;17.73;8.27;;;;;;;7.61;100.00;101173.88;5094446;28;20275;-79
2022/12/25 10:49:13;;;;;;;17.17;8.20;;;;;;;7.58;100.00;101153.13;5093177;28;20102;-79
2022/12/25 10:51:38;;;;;;;20.48;8.48;;;;;;;7.57;100.00;101151.41;5094355;28;20030;-79
2022/12/25 10:54:18;;;;;;;17.63;8.68;;;;;;;7.69;100.00;101153.94;5093559;28;20035;-79
2022/12/25 10:57:02;;;;;;;18.35;8.30;;;;;;;7.69;100.00;101138.38;5093206;28;20032;-79
2022/12/25 10:59:33;;;;;;;16.58;8.85;;;;;;;7.70;100.00;101136.63;5090718;28;20040;-80
2022/12/25 11:02:26;;;;;;;19.23;8.57;;;;;;;7.73;100.00;101134.03;5093624;28;20028;-79
2022/12/25 11:05:19;;;;;;;17.45;9.73;;;;;;;7.71;100.00;101131.41;5087174;28;20065;-79
2022/12/25 11:07:52;;;;;;;16.70;8.55;;;;;;;7.70;100.00;101139.22;5094249;28;20352;-79
2022/12/25 11:10:42;;;;;;;17.35;8.88;;;;;;;7.69;100.00;101143.56;5095452;28;20027;-78
2022/12/25 11:13:19;;;;;;;16.92;8.60;;;;;;;7.74;100.00;101146.97;5084481;28;20422;-78
2022/12/25 11:15:48;;;;;;;15.05;9.10;;;;;;;7.72;100.00;101127.97;5092915;28;20039;-79
2022/12/25 11:18:20;;;;;;;18.58;8.98;;;;;;;7.80;100.00;101124.47;5092508;28;20115;-79
2022/12/25 11:21:00;;;;;;;22.98;9.85;;;;;;;7.81;100.00;101115.78;5085720;28;20098;-79
2022/12/25 11:23:30;;;;;;;17.35;9.23;;;;;;;7.84;100.00;101113.16;5092456;28;20035;-80
2022/12/25 11:26:09;;;;;;;20.92;9.52;;;;;;;7.88;100.00;101102.78;5092244;28;20028;-80
2022/12/25 11:28:37;;;;;;;18.10;9.15;;;;;;;7.91;100.00;101092.38;5091867;28;20036;-79
2022/12/25 11:31:18;;;;;;;18.20;9.52;;;;;;;7.98;100.00;101090.56;5091438;28;20129;-79
2022/12/25 11:34:09;;;;;;;21.92;9.77;;;;;;;7.98;100.00;101093.16;5091886;28;20036;-80
2022/12/25 11:36:48;;;;;;;18.60;9.35;;;;;;;7.99;100.00;101084.50;5093143;28;20020;-79
2022/12/25 11:39:22;;;;;;;19.92;10.05;;;;;;;7.94;100.00;101076.72;5091492;28;20063;-79
2022/12/25 11:41:49;;;;;;;;;;;;;;;7.96;100.00;101080.19;5093106;28;20024;-79
2022/12/25 11:44:28;;;;;;;22.63;10.98;;;;;;;7.89;100.00;101072.47;5092025;28;19965;-79
2022/12/25 11:46:55;;;;;;;27.05;11.07;;;;;;;7.87;100.00;101077.66;5079075;28;20036;-80
2022/12/25 11:49:21;;;;;;;26.85;11.68;;;;;;;7.78;100.00;101054.38;5092613;28;20478;-80
2022/12/25 11:51:50;;;;;;;21.52;11.73;;;;;;;7.83;100.00;101059.53;5092311;28;20020;-80
2022/12/25 11:54:23;;;;;;;23.17;12.52;;;;;;;7.84;100.00;101059.53;5091633;28;20058;-79
2022/12/25 11:56:49;;;;;;;23.00;12.27;;;;;;;7.86;100.00;101054.34;5093108;28;20048;-80
2022/12/25 11:59:25;;;;;;;23.48;12.40;;;;;;;7.82;100.00;101050.91;5091737;28;20094;-79
2022/12/25 12:02:22;;;;;;;27.88;12.20;;;;;;;7.83;100.00;101054.34;5092579;28;20103;-80
2022/12/25 12:04:52;;;;;;;22.02;11.85;;;;;;;7.75;100.00;101041.47;5058897;28;20530;-78
2022/12/25 12:07:27;;;;;;;22.40;12.88;;;;;;;7.82;100.00;101052.66;5077876;28;20471;-79
2022/12/25 12:10:22;;;;;;;25.70;12.07;;;;;;;7.79;100.00;101050.94;5090469;28;20032;-79
2022/12/25 12:12:53;;;;;;;27.98;12.98;;;;;;;7.74;100.00;101058.72;5063382;28;20059;-80
2022/12/25 12:15:29;;;;;;;24.85;12.80;;;;;;;7.78;100.00;101058.72;5092006;28;20032;-80
2022/12/25 12:18:07;;;;;;;22.83;12.43;;;;;;;7.79;100.00;101055.25;5093285;28;20016;-79
2022/12/25 12:20:34;;;;;;;26.15;13.52;;;;;;;7.77;100.00;101039.69;5077411;28;20023;-79
2022/12/25 12:23:03;;;;;;;30.40;13.32;;;;;;;7.80;100.00;101037.06;5088980;28;20536;-79
2022/12/25 12:25:29;;;;;;;26.52;13.30;;;;;;;7.86;100.00;101041.34;5092023;28;20608;-78
2022/12/25 12:28:26;;;;;;;27.05;13.73;;;;;;;7.82;100.00;101030.13;5091262;28;20084;-78
2022/12/25 12:31:07;;;;;;;24.80;13.35;;;;;;;7.65;100.00;100999.16;5087230;28;20099;-78
2022/12/25 12:33:57;;;;;;;32.65;14.32;;;;;;;7.54;100.00;100971.56;5095613;28;20028;-79
2022/12/25 12:36:26;;;;;;;28.83;15.27;;;;;;;7.89;100.00;101012.78;5090450;28;20478;-79
2022/12/25 12:39:04;;;;;;;33.35;16.77;;;;;;;7.80;100.00;100977.38;5086373;28;20093;-79
2022/12/25 12:41:52;;;;;;;36.03;18.08;;;;;;;8.12;100.00;101010.78;5084265;28;20035;-78
2022/12/25 12:44:30;;;;;;;36.80;18.38;;;;;;;8.00;100.00;100997.94;5084220;28;20032;-78
2022/12/25 12:47:04;;;;;;;35.13;17.73;;;;;;;7.75;100.00;100966.19;5078792;28;20027;-78
2022/12/25 12:49:32;;;;;;;38.72;19.02;;;;;;;7.98;100.00;100999.72;5091569;28;20035;-78
2022/12/25 12:52:22;;;;;;;37.75;18.45;;;;;;;8.11;100.00;101021.19;5091715;28;20051;-79
2022/12/25 12:55:00;;;;;;;36.17;18.60;;;;;;;8.07;100.00;101009.97;5091194;28;20024;-79
2022/12/25 12:57:38;;;;;;;34.05;18.30;;;;;;;8.09;100.00;101012.56;5092016;28;20020;-78
2022/12/25 13:00:20;;;;;;;36.15;18.98;;;;;;;8.12;100.00;101009.94;5088401;28;20044;-78
2022/12/25 13:02:57;;;;;;;36.83;19.15;;;;;;;8.11;100.00;101009.09;5091724;28;20045;-79
2022/12/25 13:05:46;;;;;;;39.35;18.70;;;;;;;8.14;100.00;101006.47;5092190;28;20418;-78
2022/12/25 13:08:42;;;;;;;37.28;19.20;;;;;;;8.15;100.00;101008.16;5091646;28;20024;-79
2022/12/25 13:11:22;;;;;;;39.38;18.90;;;;;;;8.01;100.00;100968.53;5075646;28;20123;-78
2022/12/25 13:13:50;;;;;;;34.47;17.75;;;;;;;8.10;100.00;100968.38;5089735;28;20032;-78
2022/12/25 13:16:29;;;;;;;35.70;18.63;;;;;;;8.17;100.00;100974.38;5091364;28;20016;-78
2022/12/25 13:18:56;;;;;;;35.60;17.65;;;;;;;8.01;100.00;100942.56;5092078;28;20028;-79
2022/12/25 13:21:24;;;;;;;32.03;17.55;;;;;;;8.19;100.00;100963.09;5091807;28;20137;-78
2022/12/25 13:24:09;;;;;;;41.92;18.88;;;;;;;8.18;100.00;100955.34;5091025;28;20103;-78
2022/12/25 13:26:34;;;;;;;29.40;17.90;;;;;;;8.26;100.00;100960.44;5092061;28;20024;-78
2022/12/25 13:29:00;;;;;;;34.03;18.17;;;;;;;8.13;100.00;100942.38;5094572;28;20030;-78
2022/12/25 13:31:28;;;;;;;35.67;17.75;;;;;;;8.20;100.00;100944.03;5094660;28;20012;-79
2022/12/25 13:34:24;;;;;;;35.80;18.30;;;;;;;8.20;100.00;100950.97;5095502;28;20209;-78
2022/12/25 13:36:49;;;;;;;36.08;18.15;;;;;;;8.19;100.00;100942.31;5081426;28;20539;-78
2022/12/25 13:39:16;;;;;;;37.60;18.85;;;;;;;8.13;100.00;100933.75;5095202;28;20024;-78
2022/12/25 13:44:38;;;;;;;40.53;19.00;;;;;;;8.22;100.00;100951.81;5094430;28;20085;-78
2022/12/25 13:47:31;;;;;;;34.03;18.27;;;;;;;8.18;100.00;100939.75;5095605;28;20434;-79
2022/12/25 13:50:00;;;;;;;38.45;18.70;;;;;;;8.17;100.00;100944.09;5088514;28;20040;-79
2022/12/25 13:52:34;;;;;;;34.22;18.42;;;;;;;8.14;100.00;100933.75;5094340;28;20024;-79
2022/12/25 13:55:02;;;;;;;36.47;18.33;;;;;;;8.12;100.00;100927.69;5095198;28;20065;-79
2022/12/25 13:57:37;;;;;;;34.92;18.25;;;;;;;8.12;100.00;100925.09;5094529;28;20053;-79